createdAt,value
2023-04-24T00:00:13.895Z,0.60
2023-04-24T00:01:37.942Z,0.50
2023-04-24T00:03:01.049Z,0.50
2023-04-24T00:04:23.286Z,0.70
2023-04-24T00:05:46.650Z,0.50
2023-04-24T00:07:09.836Z,0.63
2023-04-24T00:08:33.340Z,0.70
2023-04-24T00:09:56.383Z,0.55
2023-04-24T00:11:19.164Z,0.60
2023-04-24T00:12:42.132Z,0.80
2023-04-24T00:14:05.007Z,0.65
2023-04-24T00:15:27.800Z,0.52
2023-04-24T00:16:51.319Z,0.60
2023-04-24T00:18:14.346Z,0.80
2023-04-24T00:19:37.187Z,0.50
2023-04-24T00:20:59.672Z,0.73
2023-04-24T00:22:23.129Z,0.70
2023-04-24T00:23:46.363Z,0.60
2023-04-24T00:25:10.035Z,0.70
2023-04-24T00:26:31.881Z,0.60
2023-04-24T00:27:54.685Z,0.80
2023-04-24T00:29:17.477Z,0.60
2023-04-24T00:30:40.308Z,0.80
2023-04-24T00:32:02.153Z,0.60
2023-04-24T00:33:25.075Z,1.38
2023-04-24T00:34:47.859Z,0.60
2023-04-24T00:36:10.769Z,0.70
2023-04-24T00:37:33.646Z,0.47
2023-04-24T00:38:57.767Z,0.73
2023-04-24T00:40:20.587Z,0.65
2023-04-24T00:42:02.483Z,0.75
2023-04-24T00:43:25.669Z,0.60
2023-04-24T00:44:48.973Z,0.60
2023-04-24T00:46:11.632Z,0.75
2023-04-24T00:47:35.125Z,0.70
2023-04-24T00:48:58.423Z,0.80
2023-04-24T00:50:22.301Z,0.70
2023-04-24T00:51:46.413Z,0.90
2023-04-24T00:53:09.237Z,0.70
2023-04-24T00:54:32.002Z,1.00
2023-04-24T00:55:54.798Z,0.77
2023-04-24T00:57:18.886Z,0.85
2023-04-24T00:58:42.708Z,0.80
2023-04-24T01:00:06.906Z,0.90
2023-04-24T01:01:29.886Z,0.80
2023-04-24T01:02:53.951Z,0.73
2023-04-24T01:04:19.036Z,1.00
2023-04-24T01:05:41.935Z,0.90
2023-04-24T01:07:05.669Z,0.80
2023-04-24T01:08:30.090Z,0.90
2023-04-24T01:09:53.114Z,0.90
2023-04-24T01:11:16.468Z,0.75
2023-04-24T01:12:40.652Z,1.10
2023-04-24T01:14:03.582Z,0.88
2023-04-24T01:15:26.596Z,0.80
2023-04-24T01:16:49.389Z,0.80
2023-04-24T01:18:11.440Z,0.85
2023-04-24T01:19:34.279Z,0.80
2023-04-24T01:20:59.114Z,0.98
2023-04-24T01:22:23.267Z,0.93
2023-04-24T01:23:46.611Z,1.10
2023-04-24T01:25:09.720Z,0.77
2023-04-24T01:26:32.647Z,1.00
2023-04-24T01:27:55.841Z,0.90
2023-04-24T01:29:17.683Z,0.93
2023-04-24T01:30:40.586Z,0.95
2023-04-24T01:32:04.621Z,0.98
2023-04-24T01:33:27.684Z,1.05
2023-04-24T01:34:50.252Z,0.98
2023-04-24T01:36:13.875Z,1.02
2023-04-24T01:37:38.372Z,0.90
2023-04-24T01:39:01.497Z,0.90
2023-04-24T01:40:23.644Z,1.05
2023-04-24T01:41:46.485Z,1.08
2023-04-24T01:43:09.586Z,1.20
2023-04-24T01:44:32.804Z,0.80
2023-04-24T01:45:54.683Z,0.70
2023-04-24T01:47:17.831Z,0.90
2023-04-24T01:48:39.780Z,0.90
2023-04-24T01:50:02.670Z,1.05
2023-04-24T01:51:25.482Z,0.90
2023-04-24T01:52:49.671Z,0.90
2023-04-24T01:54:11.566Z,0.93
2023-04-24T01:55:34.908Z,0.82
2023-04-24T01:56:56.926Z,1.00
2023-04-24T01:58:19.760Z,1.08
2023-04-24T01:59:41.916Z,1.10
2023-04-24T02:01:05.037Z,1.08
2023-04-24T02:02:28.675Z,1.05
2023-04-24T02:03:51.796Z,1.10
2023-04-24T02:05:13.807Z,1.00
2023-04-24T02:06:36.975Z,0.90
2023-04-24T02:08:00.193Z,1.20
2023-04-24T02:09:23.029Z,0.90
2023-04-24T02:10:46.169Z,1.10
2023-04-24T02:12:08.407Z,0.75
2023-04-24T02:13:31.245Z,1.10
2023-04-24T02:14:54.031Z,0.90
2023-04-24T02:16:15.859Z,1.13
2023-04-24T02:17:38.787Z,0.90
2023-04-24T02:19:00.845Z,0.93
2023-04-24T02:20:23.785Z,1.10
2023-04-24T02:21:46.579Z,0.85
2023-04-24T02:23:09.788Z,1.20
2023-04-24T02:24:32.647Z,1.00
2023-04-24T02:25:54.631Z,1.20
2023-04-24T02:27:17.462Z,1.20
2023-04-24T02:28:39.331Z,1.00
2023-04-24T02:30:02.124Z,0.90
2023-04-24T02:31:25.085Z,1.10
2023-04-24T02:32:46.947Z,1.00
2023-04-24T02:34:09.963Z,0.80
2023-04-24T02:35:33.047Z,0.90
2023-04-24T02:36:55.176Z,1.17
2023-04-24T02:38:19.315Z,0.95
2023-04-24T02:39:42.231Z,0.85
2023-04-24T02:41:07.172Z,1.00
2023-04-24T02:42:29.961Z,0.80
2023-04-24T02:43:52.730Z,1.00
2023-04-24T02:45:14.652Z,0.80
2023-04-24T02:46:37.503Z,1.52
2023-04-24T02:47:59.357Z,0.88
2023-04-24T02:49:22.197Z,0.90
2023-04-24T02:50:44.060Z,1.00
2023-04-24T02:52:06.883Z,0.80
2023-04-24T02:53:31.577Z,1.00
2023-04-24T02:54:54.923Z,0.90
2023-04-24T02:56:16.763Z,1.10
2023-04-24T02:57:39.596Z,0.85
2023-04-24T02:59:01.440Z,0.98
2023-04-24T03:00:24.336Z,0.90
2023-04-24T03:01:47.270Z,0.98
2023-04-24T03:03:09.345Z,1.10
2023-04-24T03:04:33.185Z,0.73
2023-04-24T03:05:56.642Z,1.00
2023-04-24T03:07:21.737Z,0.90
2023-04-24T03:08:45.940Z,1.00
2023-04-24T03:10:09.044Z,1.08
2023-04-24T03:11:31.986Z,1.00
2023-04-24T03:12:53.847Z,1.15
2023-04-24T03:14:16.680Z,0.95
2023-04-24T03:15:38.536Z,0.90
2023-04-24T03:17:01.482Z,1.05
2023-04-24T03:18:24.248Z,0.90
2023-04-24T03:19:46.181Z,1.20
2023-04-24T03:21:09.075Z,1.00
2023-04-24T03:22:30.903Z,1.15
2023-04-24T03:23:54.978Z,1.13
2023-04-24T03:25:17.773Z,1.25
2023-04-24T03:26:39.643Z,1.30
2023-04-24T03:28:02.482Z,0.90
2023-04-24T03:29:24.339Z,1.20
2023-04-24T03:30:47.303Z,1.00
2023-04-24T03:32:09.150Z,1.08
2023-04-24T03:33:31.977Z,0.98
2023-04-24T03:34:54.303Z,0.90
2023-04-24T03:36:17.102Z,1.00
2023-04-24T03:37:38.925Z,1.02
2023-04-24T03:39:03.043Z,1.02
2023-04-24T03:40:25.858Z,1.13
2023-04-24T03:41:47.693Z,1.20
2023-04-24T03:43:10.451Z,1.10
2023-04-24T03:44:18.224Z,1.30
2023-04-24T03:45:40.668Z,1.23
2023-04-24T03:47:03.627Z,1.27
2023-04-24T03:48:25.704Z,1.30
2023-04-24T03:49:48.215Z,1.38
2023-04-24T03:51:10.782Z,1.23
2023-04-24T03:52:32.272Z,1.30
2023-04-24T03:53:54.688Z,1.30
2023-04-24T03:55:18.512Z,1.30
2023-04-24T03:56:40.019Z,1.20
2023-04-24T03:58:02.646Z,1.23
2023-04-24T03:59:25.088Z,1.17
2023-04-24T04:00:47.775Z,1.20
2023-04-24T04:02:10.401Z,1.35
2023-04-24T04:03:32.258Z,1.30
2023-04-24T04:04:55.052Z,1.40
2023-04-24T04:06:16.744Z,1.33
2023-04-24T04:07:39.286Z,1.13
2023-04-24T04:09:01.850Z,1.50
2023-04-24T04:10:25.771Z,1.30
2023-04-24T04:11:47.310Z,1.55
2023-04-24T04:13:09.892Z,1.33
2023-04-24T04:14:32.362Z,1.50
2023-04-24T04:15:53.914Z,1.27
2023-04-24T04:17:16.429Z,1.40
2023-04-24T04:18:38.689Z,1.35
2023-04-24T04:20:01.260Z,1.52
2023-04-24T04:21:22.973Z,1.70
2023-04-24T04:22:45.406Z,1.65
2023-04-24T04:24:08.260Z,1.20
2023-04-24T04:25:31.204Z,1.98
2023-04-24T04:26:57.435Z,1.63
2023-04-24T04:28:20.889Z,1.60
2023-04-24T04:29:44.014Z,1.20
2023-04-24T04:31:08.686Z,1.70
2023-04-24T04:32:30.250Z,2.08
2023-04-24T04:33:52.744Z,1.60
2023-04-24T04:35:14.366Z,1.83
2023-04-24T04:36:37.782Z,2.10
2023-04-24T04:38:00.648Z,1.92
2023-04-24T04:39:22.349Z,1.80
2023-04-24T04:40:46.451Z,1.85
2023-04-24T04:42:08.050Z,1.70
2023-04-24T04:43:31.999Z,1.48
2023-04-24T04:44:54.663Z,1.83
2023-04-24T04:46:16.865Z,1.60
2023-04-24T04:47:40.475Z,1.92
2023-04-24T04:49:03.810Z,1.63
2023-04-24T04:50:26.313Z,1.50
2023-04-24T04:51:48.081Z,1.50
2023-04-24T04:53:10.729Z,1.60
2023-04-24T04:54:32.414Z,2.08
2023-04-24T04:55:56.404Z,1.40
2023-04-24T04:57:18.848Z,1.60
2023-04-24T04:58:41.365Z,1.13
2023-04-24T05:00:05.753Z,1.30
2023-04-24T05:01:28.476Z,1.27
2023-04-24T05:02:52.255Z,1.75
2023-04-24T05:04:15.418Z,1.30
2023-04-24T05:05:41.434Z,1.20
2023-04-24T05:07:03.919Z,1.30
2023-04-24T05:08:27.419Z,1.45
2023-04-24T05:09:50.491Z,1.35
2023-04-24T05:11:14.554Z,1.60
2023-04-24T05:12:36.125Z,1.10
2023-04-24T05:13:58.689Z,0.93
2023-04-24T05:15:21.187Z,1.40
2023-04-24T05:16:43.673Z,1.45
2023-04-24T05:18:06.334Z,1.38
2023-04-24T05:19:28.886Z,1.33
2023-04-24T05:20:51.383Z,1.30
2023-04-24T05:22:14.201Z,1.42
2023-04-24T05:23:35.861Z,1.30
2023-04-24T05:24:58.537Z,1.13
2023-04-24T05:26:23.676Z,1.00
2023-04-24T05:27:46.771Z,0.93
2023-04-24T05:29:09.275Z,1.27
2023-04-24T05:30:31.889Z,1.20
2023-04-24T05:31:54.469Z,1.13
2023-04-24T05:33:17.070Z,1.10
2023-04-24T05:34:39.645Z,1.20
2023-04-24T05:36:02.096Z,1.05
2023-04-24T05:37:24.634Z,1.30
2023-04-24T05:38:47.172Z,1.20
2023-04-24T05:40:11.357Z,1.05
2023-04-24T05:41:35.380Z,1.08
2023-04-24T05:42:58.035Z,1.20
2023-04-24T05:44:20.535Z,1.10
2023-04-24T05:45:43.002Z,1.00
2023-04-24T05:47:05.687Z,1.13
2023-04-24T05:48:27.232Z,0.90
2023-04-24T05:49:49.712Z,0.93
2023-04-24T05:51:12.296Z,1.35
2023-04-24T05:52:34.767Z,1.05
2023-04-24T05:53:57.277Z,0.90
2023-04-24T05:55:19.867Z,0.93
2023-04-24T05:56:44.070Z,1.13
2023-04-24T05:58:06.890Z,0.90
2023-04-24T05:59:29.361Z,1.10
2023-04-24T06:00:51.887Z,1.00
2023-04-24T06:02:14.410Z,1.00
2023-04-24T06:03:37.221Z,0.95
2023-04-24T06:05:00.126Z,1.10
2023-04-24T06:06:22.881Z,1.30
2023-04-24T06:07:46.786Z,0.90
2023-04-24T06:09:09.380Z,1.10
2023-04-24T06:10:31.877Z,1.10
2023-04-24T06:11:55.744Z,1.15
2023-04-24T06:13:18.407Z,0.73
2023-04-24T06:14:40.830Z,1.33
2023-04-24T06:16:03.602Z,1.10
2023-04-24T06:17:26.156Z,0.80
2023-04-24T06:18:49.258Z,1.02
2023-04-24T06:20:12.911Z,1.00
2023-04-24T06:21:35.603Z,0.82
2023-04-24T06:22:59.821Z,1.40
2023-04-24T06:24:22.314Z,1.17
2023-04-24T06:25:44.865Z,1.13
2023-04-24T06:27:08.786Z,0.80
2023-04-24T06:28:31.280Z,1.00
2023-04-24T06:29:55.795Z,1.10
2023-04-24T06:31:18.262Z,0.80
2023-04-24T06:32:41.418Z,0.70
2023-04-24T06:34:03.959Z,0.80
2023-04-24T06:35:27.226Z,0.90
2023-04-24T06:36:49.883Z,0.88
2023-04-24T06:38:12.355Z,0.90
2023-04-24T06:39:34.833Z,0.77
2023-04-24T06:40:57.316Z,0.80
2023-04-24T06:42:23.203Z,1.02
2023-04-24T06:43:45.995Z,0.90
2023-04-24T06:45:09.507Z,0.68
2023-04-24T06:46:32.068Z,0.70
2023-04-24T06:47:54.636Z,0.80
2023-04-24T06:49:17.374Z,0.90
2023-04-24T06:50:39.945Z,0.60
2023-04-24T06:52:02.397Z,0.80
2023-04-24T06:53:24.876Z,0.75
2023-04-24T06:54:47.381Z,0.70
2023-04-24T06:56:10.033Z,0.60
2023-04-24T06:57:34.197Z,0.60
2023-04-24T06:58:56.819Z,0.60
2023-04-24T07:00:19.801Z,0.50
2023-04-24T07:01:42.430Z,0.68
2023-04-24T07:03:06.438Z,0.63
2023-04-24T07:04:29.367Z,1.00
2023-04-24T07:05:52.256Z,0.57
2023-04-24T07:07:17.820Z,0.52
2023-04-24T07:08:40.407Z,0.70
2023-04-24T07:10:04.924Z,0.50
2023-04-24T07:11:30.129Z,0.60
2023-04-24T07:12:54.305Z,0.60
2023-04-24T07:14:16.794Z,0.63
2023-04-24T07:15:39.852Z,0.70
2023-04-24T07:17:02.354Z,0.60
2023-04-24T07:18:25.415Z,0.60
2023-04-24T07:19:48.052Z,0.50
2023-04-24T07:21:10.562Z,0.40
2023-04-24T07:22:33.012Z,0.60
2023-04-24T07:23:55.671Z,0.60
2023-04-24T07:25:18.308Z,0.60
2023-04-24T07:26:41.431Z,0.70
2023-04-24T07:28:05.619Z,0.50
2023-04-24T07:29:28.059Z,0.52
2023-04-24T07:30:50.536Z,0.50
2023-04-24T07:32:13.001Z,0.57
2023-04-24T07:33:37.438Z,0.60
2023-04-24T07:35:00.007Z,0.40
2023-04-24T07:36:22.452Z,0.55
2023-04-24T07:37:46.810Z,0.40
2023-04-24T07:39:10.327Z,0.57
2023-04-24T07:40:32.866Z,0.70
2023-04-24T07:41:55.353Z,0.60
2023-04-24T07:43:19.254Z,0.50
2023-04-24T07:44:41.735Z,0.45
2023-04-24T07:46:04.864Z,0.50
2023-04-24T07:47:28.940Z,0.55
2023-04-24T07:49:01.784Z,0.40
2023-04-24T07:50:32.222Z,0.65
2023-04-24T07:51:54.695Z,0.50
2023-04-24T07:53:17.392Z,0.40
2023-04-24T07:54:39.905Z,0.90
2023-04-24T07:56:02.401Z,0.57
2023-04-24T07:57:24.905Z,0.60
2023-04-24T07:58:48.676Z,0.50
2023-04-24T08:00:12.275Z,0.35
2023-04-24T08:01:34.850Z,0.60
2023-04-24T08:02:57.497Z,0.47
2023-04-24T08:04:20.530Z,0.60
2023-04-24T08:05:44.063Z,0.50
2023-04-24T08:07:06.721Z,0.65
2023-04-24T08:08:29.354Z,0.90
2023-04-24T08:09:51.871Z,0.40
2023-04-24T08:11:14.362Z,0.40
2023-04-24T08:12:36.907Z,0.50
2023-04-24T08:14:01.095Z,0.70
2023-04-24T08:15:23.605Z,0.60
2023-04-24T08:16:46.446Z,0.68
2023-04-24T08:18:09.917Z,0.50
2023-04-24T08:19:32.436Z,0.40
2023-04-24T08:20:55.152Z,0.40
2023-04-24T08:22:18.041Z,0.45
2023-04-24T08:23:40.468Z,0.55
2023-04-24T08:25:03.029Z,0.57
2023-04-24T08:26:25.874Z,0.40
2023-04-24T08:27:48.337Z,0.50
2023-04-24T08:29:12.328Z,0.60
2023-04-24T08:30:34.760Z,0.50
2023-04-24T08:31:57.390Z,0.60
2023-04-24T08:33:20.008Z,0.43
2023-04-24T08:34:42.499Z,0.60
2023-04-24T08:36:05.952Z,0.30
2023-04-24T08:37:29.579Z,0.40
2023-04-24T08:38:52.125Z,0.50
2023-04-24T08:40:16.363Z,0.50
2023-04-24T08:41:39.959Z,0.50
2023-04-24T08:43:02.734Z,0.40
2023-04-24T08:44:26.835Z,0.50
2023-04-24T08:45:49.779Z,0.45
2023-04-24T08:47:15.219Z,0.55
2023-04-24T08:48:39.784Z,0.50
2023-04-24T08:50:04.001Z,0.40
2023-04-24T08:51:28.435Z,0.50
2023-04-24T08:52:54.197Z,0.65
2023-04-24T08:54:16.900Z,0.50
2023-04-24T08:55:39.956Z,0.57
2023-04-24T08:57:05.455Z,0.98
2023-04-24T08:58:28.563Z,0.40
2023-04-24T08:59:52.948Z,0.45
2023-04-24T09:01:15.993Z,0.40
2023-04-24T09:02:38.973Z,0.60
2023-04-24T09:04:04.336Z,0.65
2023-04-24T09:05:28.465Z,0.60
2023-04-24T09:06:51.429Z,0.50
2023-04-24T09:08:15.635Z,0.47
2023-04-24T09:09:40.706Z,0.50
2023-04-24T09:11:04.611Z,0.50
2023-04-24T09:12:27.498Z,0.63
2023-04-24T09:13:50.532Z,0.30
2023-04-24T09:15:14.873Z,0.43
2023-04-24T09:16:55.557Z,0.50
2023-04-24T09:18:19.033Z,0.50
2023-04-24T09:19:42.739Z,0.50
2023-04-24T09:21:08.942Z,0.68
2023-04-24T09:22:32.384Z,0.40
2023-04-24T09:24:06.076Z,0.45
2023-04-24T09:25:34.364Z,0.60
2023-04-24T09:26:59.801Z,0.70
2023-04-24T09:28:27.651Z,0.68
2023-04-24T09:29:56.786Z,0.45
2023-04-24T09:31:23.109Z,0.57
2023-04-24T09:32:45.793Z,0.60
2023-04-24T09:34:08.585Z,0.60
2023-04-24T09:35:13.183Z,0.50
2023-04-24T09:36:19.387Z,0.70
2023-04-24T09:37:30.558Z,0.60
2023-04-24T09:38:34.189Z,0.68
2023-04-24T09:39:37.090Z,0.55
2023-04-24T09:40:41.438Z,0.32
2023-04-24T09:41:48.719Z,0.52
2023-04-24T09:42:54.351Z,0.60
2023-04-24T09:43:58.057Z,0.50
2023-04-24T09:45:11.913Z,0.55
2023-04-24T09:46:22.475Z,0.50
2023-04-24T09:47:25.485Z,0.60
2023-04-24T09:48:35.671Z,0.60
2023-04-24T09:49:40.188Z,0.50
2023-04-24T09:50:48.183Z,0.60
2023-04-24T09:51:50.957Z,0.73
2023-04-24T09:52:59.651Z,0.50
2023-04-24T09:54:01.432Z,0.52
2023-04-24T09:55:04.586Z,0.50
2023-04-24T09:56:10.020Z,0.50
2023-04-24T09:57:11.828Z,0.57
2023-04-24T09:58:14.557Z,0.60
2023-04-24T09:59:18.656Z,0.70
2023-04-24T10:00:24.033Z,0.50
2023-04-24T10:01:45.614Z,0.80
2023-04-24T10:02:52.071Z,0.40
2023-04-24T10:03:55.290Z,0.57
2023-04-24T10:05:00.827Z,0.63
2023-04-24T10:06:09.501Z,0.70
2023-04-24T10:07:12.310Z,0.52
2023-04-24T10:08:15.933Z,0.98
2023-04-24T10:09:19.946Z,0.50
2023-04-24T10:10:21.916Z,0.63
2023-04-24T10:11:25.834Z,0.50
2023-04-24T10:12:29.907Z,0.63
2023-04-24T10:13:34.220Z,0.50
2023-04-24T10:14:38.688Z,0.52
2023-04-24T10:15:42.413Z,0.77
2023-04-24T10:16:47.827Z,0.60
2023-04-24T10:17:53.562Z,0.50
2023-04-24T10:18:57.103Z,0.47
2023-04-24T10:20:02.523Z,0.60
2023-04-24T10:21:05.745Z,0.70
2023-04-24T10:22:08.923Z,0.50
2023-04-24T10:23:12.873Z,0.73
2023-04-24T10:24:16.870Z,0.70
2023-04-24T10:25:20.925Z,0.70
2023-04-24T10:26:24.911Z,0.57
2023-04-24T10:27:28.278Z,0.60
2023-04-24T10:28:33.868Z,0.70
2023-04-24T10:29:38.276Z,0.70
2023-04-24T10:30:43.671Z,0.50
2023-04-24T10:31:48.399Z,0.70
2023-04-24T10:32:50.945Z,0.60
2023-04-24T10:33:55.242Z,0.90
2023-04-24T10:34:57.588Z,0.85
2023-04-24T10:36:01.241Z,0.65
2023-04-24T10:37:04.542Z,0.80
2023-04-24T10:38:11.137Z,0.68
2023-04-24T10:39:16.686Z,0.70
2023-04-24T10:40:19.811Z,0.70
2023-04-24T10:41:24.335Z,0.75
2023-04-24T10:42:28.699Z,0.68
2023-04-24T10:43:31.464Z,0.55
2023-04-24T10:44:37.982Z,0.70
2023-04-24T10:45:41.417Z,0.93
2023-04-24T10:46:48.535Z,0.63
2023-04-24T10:48:04.345Z,1.00
2023-04-24T10:49:09.851Z,0.77
2023-04-24T10:50:11.768Z,0.60
2023-04-24T10:51:16.170Z,0.70
2023-04-24T10:52:18.921Z,0.60
2023-04-24T10:53:24.987Z,0.50
2023-04-24T10:54:29.492Z,0.70
2023-04-24T10:55:43.134Z,0.70
2023-04-24T10:56:45.159Z,0.65
2023-04-24T10:58:04.751Z,0.60
2023-04-24T10:59:10.694Z,0.75
2023-04-24T11:00:19.128Z,0.77
2023-04-24T11:01:26.293Z,0.88
2023-04-24T11:02:39.121Z,0.73
2023-04-24T11:03:53.282Z,0.80
2023-04-24T11:04:55.754Z,0.68
2023-04-24T11:06:00.956Z,0.57
2023-04-24T11:07:04.734Z,0.60
2023-04-24T11:08:13.522Z,0.52
2023-04-24T11:09:17.653Z,0.77
2023-04-24T11:10:27.025Z,0.60
2023-04-24T11:11:31.325Z,0.70
2023-04-24T11:12:36.099Z,0.70
2023-04-24T11:14:05.459Z,0.60
2023-04-24T11:15:12.212Z,0.68
2023-04-24T11:16:16.013Z,0.60
2023-04-24T11:17:30.974Z,0.70
2023-04-24T11:18:41.089Z,0.70
2023-04-24T11:19:43.861Z,0.50
2023-04-24T11:20:45.978Z,0.52
2023-04-24T11:21:50.542Z,0.68
2023-04-24T11:22:56.673Z,0.70
2023-04-24T11:23:59.438Z,0.70
2023-04-24T11:25:04.383Z,0.63
2023-04-24T11:26:13.701Z,0.60
2023-04-24T11:27:18.932Z,0.70
2023-04-24T11:28:20.824Z,0.57
2023-04-24T11:29:24.531Z,0.70
2023-04-24T11:30:31.857Z,0.60
2023-04-24T11:31:38.485Z,0.52
2023-04-24T11:32:43.021Z,0.80
2023-04-24T11:33:46.230Z,0.68
2023-04-24T11:34:50.157Z,0.73
2023-04-24T11:35:53.324Z,0.80
2023-04-24T11:36:55.133Z,0.75
2023-04-24T11:39:04.650Z,0.68
2023-04-24T11:40:09.285Z,0.85
2023-04-24T11:41:11.262Z,0.90
2023-04-24T11:42:17.028Z,0.80
2023-04-24T11:43:20.845Z,0.93
2023-04-24T11:44:25.885Z,1.13
2023-04-24T11:45:32.000Z,1.20
2023-04-24T11:46:34.063Z,0.90
2023-04-24T11:47:37.064Z,1.02
2023-04-24T11:48:41.051Z,0.82
2023-04-24T11:49:45.331Z,0.85
2023-04-24T11:50:48.951Z,1.00
2023-04-24T11:51:53.986Z,0.73
2023-04-24T11:52:58.695Z,1.05
2023-04-24T11:54:04.545Z,1.08
2023-04-24T11:55:10.050Z,0.98
2023-04-24T11:56:11.920Z,0.90
2023-04-24T11:57:14.956Z,1.02
2023-04-24T11:58:23.124Z,0.80
2023-04-24T11:59:25.072Z,1.50
2023-04-24T12:00:29.833Z,1.05
2023-04-24T12:01:44.893Z,1.08
2023-04-24T12:02:47.765Z,0.80
2023-04-24T12:03:52.551Z,1.10
2023-04-24T12:04:57.785Z,0.95
2023-04-24T12:06:08.696Z,1.17
2023-04-24T12:07:12.129Z,1.10
2023-04-24T12:08:28.385Z,1.13
2023-04-24T12:09:42.101Z,1.00
2023-04-24T12:10:44.833Z,1.23
2023-04-24T12:11:54.026Z,1.10
2023-04-24T12:12:58.251Z,0.82
2023-04-24T12:14:12.275Z,1.00
2023-04-24T12:15:15.054Z,1.20
2023-04-24T12:16:18.000Z,0.95
2023-04-24T12:17:26.936Z,1.10
2023-04-24T12:18:31.468Z,1.20
2023-04-24T12:19:34.172Z,1.10
2023-04-24T12:20:38.464Z,1.10
2023-04-24T12:21:40.557Z,1.02
2023-04-24T12:22:47.584Z,0.90
2023-04-24T12:23:51.859Z,1.35
2023-04-24T12:24:57.950Z,0.90
2023-04-24T12:26:02.740Z,1.08
2023-04-24T12:27:05.577Z,1.08
2023-04-24T12:28:13.023Z,1.02
2023-04-24T12:29:22.010Z,1.15
2023-04-24T12:30:28.561Z,1.10
2023-04-24T12:31:33.225Z,1.00
2023-04-24T12:32:35.993Z,1.00
2023-04-24T12:33:38.024Z,1.02
2023-04-24T12:34:41.102Z,1.10
2023-04-24T12:35:45.129Z,1.00
2023-04-24T12:36:46.833Z,0.95
2023-04-24T12:37:49.585Z,0.80
2023-04-24T12:38:55.225Z,0.85
2023-04-24T12:40:01.643Z,0.90
2023-04-24T12:41:06.488Z,0.95
2023-04-24T12:42:08.364Z,0.80
2023-04-24T12:43:16.693Z,0.80
2023-04-24T12:44:19.664Z,0.70
2023-04-24T12:45:24.351Z,0.80
2023-04-24T12:46:26.307Z,0.88
2023-04-24T12:47:30.076Z,0.80
2023-04-24T12:48:33.262Z,1.00
2023-04-24T12:49:35.149Z,0.90
2023-04-24T12:50:38.114Z,1.10
2023-04-24T12:51:41.189Z,0.88
2023-04-24T12:52:45.173Z,0.80
2023-04-24T12:53:47.654Z,1.20
2023-04-24T12:54:49.419Z,0.90
2023-04-24T12:55:54.202Z,1.15
2023-04-24T12:56:57.637Z,0.90
2023-04-24T12:58:00.593Z,0.90
2023-04-24T12:59:03.754Z,1.05
2023-04-24T13:00:08.959Z,1.00
2023-04-24T13:01:11.110Z,1.10
2023-04-24T13:02:14.292Z,1.02
2023-04-24T13:03:17.340Z,0.77
2023-04-24T13:04:19.671Z,1.00
2023-04-24T13:05:25.175Z,0.80
2023-04-24T13:06:28.678Z,0.77
2023-04-24T13:07:31.937Z,1.00
2023-04-24T13:08:34.699Z,0.90
2023-04-24T13:09:36.865Z,0.80
2023-04-24T13:10:40.028Z,1.00
2023-04-24T13:11:41.830Z,0.82
2023-04-24T13:12:46.389Z,0.80
2023-04-24T13:13:48.130Z,0.95
2023-04-24T13:14:50.848Z,0.80
2023-04-24T13:15:53.724Z,0.80
2023-04-24T13:16:55.691Z,0.77
2023-04-24T13:17:58.466Z,0.70
2023-04-24T13:19:01.290Z,0.80
2023-04-24T13:20:03.837Z,0.77
2023-04-24T13:21:06.888Z,0.90
2023-04-24T13:22:10.937Z,0.57
2023-04-24T13:23:15.794Z,0.50
2023-04-24T13:24:18.208Z,0.60
2023-04-24T13:25:21.443Z,0.70
2023-04-24T13:26:24.195Z,0.57
2023-04-24T13:27:26.958Z,0.75
2023-04-24T13:28:28.903Z,0.90
2023-04-24T13:29:31.775Z,0.60
2023-04-24T13:30:34.592Z,0.73
2023-04-24T13:31:36.613Z,0.55
2023-04-24T13:32:39.419Z,1.10
2023-04-24T13:33:42.362Z,0.70
2023-04-24T13:34:44.310Z,0.70
2023-04-24T13:35:46.865Z,0.70
2023-04-24T13:36:48.590Z,0.63
2023-04-24T13:37:51.241Z,0.65
2023-04-24T13:38:54.371Z,0.68
2023-04-24T13:39:57.376Z,0.50
2023-04-24T13:40:59.251Z,0.60
2023-04-24T13:42:04.440Z,0.60
2023-04-24T13:43:07.811Z,0.73
2023-04-24T13:44:10.363Z,0.60
2023-04-24T13:45:23.903Z,0.50
2023-04-24T13:46:26.954Z,0.50
2023-04-24T13:47:29.992Z,0.40
2023-04-24T13:48:31.766Z,0.60
2023-04-24T13:49:34.746Z,0.68
2023-04-24T13:50:37.550Z,0.40
2023-04-24T13:51:39.952Z,0.60
2023-04-24T13:52:42.696Z,0.60
2023-04-24T13:53:44.684Z,0.68
2023-04-24T13:54:49.094Z,0.50
2023-04-24T13:55:51.194Z,0.63
2023-04-24T13:56:54.399Z,0.50
2023-04-24T13:57:56.324Z,0.65
2023-04-24T13:58:59.080Z,0.70
2023-04-24T14:00:04.841Z,0.65
2023-04-24T14:01:07.179Z,0.70
2023-04-24T14:02:10.172Z,0.70
2023-04-24T14:03:12.176Z,0.60
2023-04-24T14:04:15.628Z,0.80
2023-04-24T14:05:19.375Z,0.60
2023-04-24T14:06:21.817Z,0.55
2023-04-24T14:07:24.583Z,0.52
2023-04-24T14:08:27.677Z,0.50
2023-04-24T14:09:30.067Z,0.80
2023-04-24T14:10:34.227Z,0.80
2023-04-24T14:11:36.448Z,0.77
2023-04-24T14:12:39.203Z,0.65
2023-04-24T14:13:42.681Z,0.75
2023-04-24T14:14:45.817Z,0.65
2023-04-24T14:15:47.522Z,0.65
2023-04-24T14:16:50.423Z,0.75
2023-04-24T14:17:53.432Z,0.52
2023-04-24T14:18:55.855Z,0.73
2023-04-24T14:20:00.917Z,0.60
2023-04-24T14:21:02.848Z,0.90
2023-04-24T14:22:05.645Z,0.70
2023-04-24T14:23:07.412Z,0.90
2023-04-24T14:24:10.276Z,0.60
2023-04-24T14:25:12.264Z,0.55
2023-04-24T14:26:16.345Z,0.60
2023-04-24T14:27:18.542Z,0.50
2023-04-24T14:28:22.050Z,0.40
2023-04-24T14:29:26.888Z,0.50
2023-04-24T14:30:28.762Z,0.52
2023-04-24T14:31:31.837Z,0.40
2023-04-24T14:32:33.722Z,0.50
2023-04-24T14:33:36.564Z,0.45
2023-04-24T14:34:38.468Z,0.65
2023-04-24T14:35:43.023Z,0.43
2023-04-24T14:36:44.855Z,0.50
2023-04-24T14:37:47.309Z,0.50
2023-04-24T14:38:49.075Z,0.50
2023-04-24T14:40:04.657Z,0.40
2023-04-24T14:41:14.036Z,0.25
2023-04-24T14:42:18.095Z,0.20
2023-04-24T14:43:21.016Z,0.20
2023-04-24T14:44:22.822Z,0.20
2023-04-24T14:45:25.494Z,0.25
2023-04-24T14:46:28.204Z,0.20
2023-04-24T14:47:31.528Z,0.20
2023-04-24T14:48:33.451Z,0.30
2023-04-24T14:49:36.640Z,0.30
2023-04-24T14:50:38.502Z,0.20
2023-04-24T14:51:41.724Z,0.20
2023-04-24T14:52:43.484Z,0.20
2023-04-24T14:53:47.882Z,0.35
2023-04-24T14:54:49.898Z,0.30
2023-04-24T14:55:52.886Z,0.30
2023-04-24T14:56:55.320Z,0.30
2023-04-24T14:57:59.741Z,0.20
2023-04-24T14:59:01.618Z,0.40
2023-04-24T15:00:07.090Z,0.30
2023-04-24T15:01:08.901Z,0.20
2023-04-24T15:02:16.627Z,0.30
2023-04-24T15:03:21.696Z,0.17
2023-04-24T15:04:26.647Z,0.20
2023-04-24T15:05:28.761Z,0.15
2023-04-24T15:06:32.622Z,0.20
2023-04-24T15:07:34.574Z,0.30
2023-04-24T15:08:37.239Z,0.13
2023-04-24T15:09:40.200Z,0.30
2023-04-24T15:10:42.140Z,0.50
2023-04-24T15:11:44.995Z,0.30
2023-04-24T15:12:46.563Z,0.30
2023-04-24T15:13:50.473Z,0.20
2023-04-24T15:14:52.279Z,0.10
2023-04-24T15:15:54.988Z,0.20
2023-04-24T15:16:56.829Z,0.20
2023-04-24T15:17:59.550Z,0.20
2023-04-24T15:19:02.777Z,0.47
2023-04-24T15:20:07.282Z,0.10
2023-04-24T15:21:10.215Z,0.30
2023-04-24T15:22:12.286Z,0.10
2023-04-24T15:23:15.381Z,0.20
2023-04-24T15:24:17.246Z,0.20
2023-04-24T15:25:19.958Z,0.10
2023-04-24T15:26:25.023Z,0.22
2023-04-24T15:27:27.299Z,0.38
2023-04-24T15:28:30.323Z,0.20
2023-04-24T15:29:33.936Z,0.17
2023-04-24T15:30:36.630Z,0.13
2023-04-24T15:31:41.156Z,0.20
2023-04-24T15:32:44.060Z,0.10
2023-04-24T15:33:47.119Z,0.10
2023-04-24T15:34:49.501Z,0.17
2023-04-24T15:35:56.866Z,0.10
2023-04-24T15:36:58.791Z,0.20
2023-04-24T15:38:01.616Z,0.30
2023-04-24T15:39:05.615Z,0.17
2023-04-24T15:40:12.148Z,0.20
2023-04-24T15:41:14.149Z,0.20
2023-04-24T15:42:16.904Z,0.20
2023-04-24T15:43:19.623Z,0.20
2023-04-24T15:44:22.048Z,0.30
2023-04-24T15:45:26.841Z,0.10
2023-04-24T15:46:29.687Z,0.17
2023-04-24T15:47:32.718Z,0.20
2023-04-24T15:48:36.491Z,0.32
2023-04-24T15:49:38.307Z,0.20
2023-04-24T15:50:41.014Z,0.20
2023-04-24T15:51:43.723Z,0.20
2023-04-24T15:52:46.565Z,0.10
2023-04-24T15:53:48.600Z,0.17
2023-04-24T15:54:51.613Z,0.20
2023-04-24T15:55:53.565Z,0.20
2023-04-24T15:56:56.929Z,0.10
2023-04-24T15:57:59.672Z,0.13
2023-04-24T15:59:01.609Z,0.10
2023-04-24T16:00:06.995Z,0.22
2023-04-24T16:01:10.507Z,0.20
2023-04-24T16:02:18.916Z,0.20
2023-04-24T16:03:22.103Z,0.20
2023-04-24T16:04:24.457Z,0.22
2023-04-24T16:05:27.684Z,0.20
2023-04-24T16:06:29.291Z,0.68
2023-04-24T16:07:32.536Z,0.30
2023-04-24T16:08:36.122Z,0.40
2023-04-24T16:09:37.848Z,0.30
2023-04-24T16:10:40.599Z,0.20
2023-04-24T16:11:43.733Z,0.30
2023-04-24T16:12:46.842Z,0.30
2023-04-24T16:13:48.379Z,0.30
2023-04-24T16:14:51.260Z,0.30
2023-04-24T16:15:54.066Z,0.40
2023-04-24T16:16:57.407Z,0.30
2023-04-24T16:18:00.207Z,0.30
2023-04-24T16:19:03.165Z,0.30
2023-04-24T16:20:06.189Z,0.25
2023-04-24T16:21:09.905Z,0.30
2023-04-24T16:22:12.661Z,0.30
2023-04-24T16:23:15.378Z,0.30
2023-04-24T16:24:18.177Z,0.30
2023-04-24T16:25:21.123Z,0.30
2023-04-24T16:26:22.947Z,0.30